createdAt,value
2022-08-27T00:00:58.955Z,100078.81
2022-08-27T00:06:01.518Z,100085.31
2022-08-27T00:11:05.638Z,100078.25
2022-08-27T00:16:11.091Z,100071.41
2022-08-27T00:21:14.541Z,100069.19
2022-08-27T00:26:18.879Z,100071.63
2022-08-27T00:31:27.138Z,100071.78
2022-08-27T00:36:30.354Z,100062.56
2022-08-27T00:41:36.925Z,100065.53
2022-08-27T00:46:43.824Z,100065.75
2022-08-27T00:51:50.234Z,100061.13
2022-08-27T00:56:55.652Z,100064.84
2022-08-27T01:02:16.025Z,100060.72
2022-08-27T01:07:19.272Z,100080.03
2022-08-27T01:12:23.472Z,100086.59
2022-08-27T01:17:27.606Z,100088.31
2022-08-27T01:22:37.464Z,100102.03
2022-08-27T01:27:43.877Z,100096.38
2022-08-27T01:32:47.767Z,100106.50
2022-08-27T01:37:52.321Z,100106.75
2022-08-27T01:42:58.049Z,100114.22
2022-08-27T01:48:02.483Z,100107.06
2022-08-27T01:53:07.709Z,100113.38
2022-08-27T01:58:11.732Z,100112.38
2022-08-27T02:03:19.145Z,100111.38
2022-08-27T02:08:22.386Z,100114.31
2022-08-27T02:13:26.296Z,100111.19
2022-08-27T02:18:28.649Z,100109.63
2022-08-27T02:23:31.256Z,100113.03
2022-08-27T02:28:35.570Z,100113.09
2022-08-27T02:33:38.100Z,100112.88
2022-08-27T02:38:40.694Z,100105.47
2022-08-27T02:43:45.353Z,100114.13
2022-08-27T02:48:48.454Z,100114.53
2022-08-27T02:53:50.931Z,100116.31
2022-08-27T02:58:55.349Z,100106.44
2022-08-27T03:03:58.942Z,100100.16
2022-08-27T03:09:01.461Z,100102.75
2022-08-27T03:14:05.485Z,100106.47
2022-08-27T03:19:09.005Z,100108.00
2022-08-27T03:24:14.782Z,100100.91
2022-08-27T03:29:18.749Z,100103.53
2022-08-27T03:34:21.131Z,100108.56
2022-08-27T03:39:23.954Z,100114.53
2022-08-27T03:44:27.774Z,100108.16
2022-08-27T03:49:30.221Z,100101.44
2022-08-27T03:54:35.795Z,100109.78
2022-08-27T03:59:39.832Z,100105.66
2022-08-27T04:04:42.314Z,100103.78
2022-08-27T04:09:44.784Z,100111.00
2022-08-27T04:14:48.679Z,100117.63
2022-08-27T04:19:52.427Z,100115.13
2022-08-27T04:24:55.127Z,100110.03
2022-08-27T04:30:01.877Z,100123.13
2022-08-27T04:35:05.629Z,100115.00
2022-08-27T04:40:09.283Z,100117.72
2022-08-27T04:45:13.265Z,100115.69
2022-08-27T04:50:15.652Z,100120.91
2022-08-27T04:55:18.836Z,100120.25
2022-08-27T05:00:23.473Z,100119.50
2022-08-27T05:05:28.418Z,100119.59
2022-08-27T05:10:30.958Z,100123.50
2022-08-27T05:15:34.986Z,100125.03
2022-08-27T05:20:44.987Z,100123.91
2022-08-27T05:25:50.285Z,100127.53
2022-08-27T05:30:56.995Z,100126.56
2022-08-27T05:36:01.008Z,100123.34
2022-08-27T05:41:05.607Z,100128.03
2022-08-27T05:46:12.040Z,100121.94
2022-08-27T05:51:19.811Z,100123.28
2022-08-27T05:56:29.600Z,100128.66
2022-08-27T06:01:37.395Z,100120.41
2022-08-27T06:06:42.068Z,100117.72
2022-08-27T06:11:46.415Z,100112.53
2022-08-27T06:16:50.489Z,100116.28
2022-08-27T06:22:01.310Z,100114.72
2022-08-27T06:27:16.218Z,100128.91
2022-08-27T06:32:20.032Z,100128.88
2022-08-27T06:37:22.420Z,100132.63
2022-08-27T06:42:24.976Z,100138.53
2022-08-27T06:47:28.856Z,100138.47
2022-08-27T06:52:31.753Z,100145.41
2022-08-27T06:57:34.283Z,100141.06
2022-08-27T07:02:38.845Z,100145.16
2022-08-27T07:07:46.676Z,100157.38
2022-08-27T07:12:51.575Z,100167.59
2022-08-27T07:17:55.577Z,100166.16
2022-08-27T07:23:02.094Z,100155.31
2022-08-27T07:28:04.838Z,100164.47
2022-08-27T07:33:08.924Z,100168.00
2022-08-27T07:38:12.295Z,100174.63
2022-08-27T07:43:41.383Z,100180.53
2022-08-27T07:48:45.209Z,100185.38
2022-08-27T07:53:48.235Z,100182.69
2022-08-27T07:58:51.897Z,100183.66
2022-08-27T08:03:55.758Z,100187.91
2022-08-27T08:09:00.728Z,100186.66
2022-08-27T08:14:03.298Z,100190.16
2022-08-27T08:19:09.161Z,100204.78
2022-08-27T08:24:11.746Z,100199.03
2022-08-27T08:29:18.122Z,100199.09
2022-08-27T08:34:22.379Z,100201.44
2022-08-27T08:39:25.142Z,100208.66
2022-08-27T08:44:32.651Z,100207.28
2022-08-27T08:49:44.020Z,100210.06
2022-08-27T08:54:46.862Z,100210.00
2022-08-27T09:00:01.618Z,100202.16
2022-08-27T09:05:08.371Z,100205.81
2022-08-27T09:10:21.396Z,100197.63
2022-08-27T09:15:28.941Z,100203.91
2022-08-27T09:20:34.030Z,100206.25
2022-08-27T09:25:40.764Z,100210.31
2022-08-27T09:30:44.193Z,100210.50
2022-08-27T09:35:48.195Z,100209.25
2022-08-27T09:40:53.011Z,100211.97
2022-08-27T09:45:57.441Z,100210.88
2022-08-27T09:51:03.967Z,100216.78
2022-08-27T09:56:09.939Z,100216.41
2022-08-27T10:01:20.243Z,100216.34
2022-08-27T10:06:30.118Z,100211.75
2022-08-27T10:11:38.488Z,100219.41
2022-08-27T10:16:55.166Z,100214.56
2022-08-27T10:22:07.236Z,100215.41
2022-08-27T10:27:22.005Z,100225.41
2022-08-27T10:32:34.527Z,100225.13
2022-08-27T10:37:52.237Z,100228.47
2022-08-27T10:43:06.652Z,100227.47
2022-08-27T10:48:17.487Z,100229.22
2022-08-27T10:53:28.100Z,100232.88
2022-08-27T10:58:43.645Z,100231.25
2022-08-27T11:03:51.636Z,100231.66
2022-08-27T11:09:00.491Z,100233.28
2022-08-27T11:14:20.627Z,100226.44
2022-08-27T11:19:29.197Z,100233.03
2022-08-27T11:24:40.283Z,100226.59
2022-08-27T11:29:50.698Z,100223.75
2022-08-27T11:35:04.541Z,100222.91
2022-08-27T11:40:31.572Z,100233.47
2022-08-27T11:45:38.549Z,100227.16
2022-08-27T11:50:42.519Z,100221.84
2022-08-27T11:55:45.054Z,100220.88
2022-08-27T12:00:49.180Z,100228.66
2022-08-27T12:06:10.886Z,100216.91
2022-08-27T12:11:28.950Z,100225.28
2022-08-27T12:16:41.363Z,100230.09
2022-08-27T12:22:01.229Z,100231.19
2022-08-27T12:27:18.961Z,100220.34
2022-08-27T12:32:27.610Z,100224.88
2022-08-27T12:37:36.132Z,100218.88
2022-08-27T12:42:38.934Z,100214.84
2022-08-27T12:47:50.661Z,100221.97
2022-08-27T12:53:15.615Z,100221.66
2022-08-27T12:58:24.924Z,100222.09
2022-08-27T13:03:33.789Z,100215.09
2022-08-27T13:08:37.918Z,100219.31
2022-08-27T13:13:40.444Z,100214.59
2022-08-27T13:18:43.046Z,100221.16
2022-08-27T13:23:54.030Z,100209.41
2022-08-27T13:29:03.065Z,100215.03
2022-08-27T13:34:07.723Z,100226.09
2022-08-27T13:39:11.659Z,100216.03
2022-08-27T13:44:19.723Z,100225.13
2022-08-27T13:49:25.803Z,100221.53
2022-08-27T13:54:31.282Z,100220.25
2022-08-27T13:59:43.210Z,100210.97
2022-08-27T14:04:48.573Z,100214.41
2022-08-27T14:09:55.709Z,100208.06
2022-08-27T14:14:58.805Z,100207.00
2022-08-27T14:20:03.126Z,100196.97
2022-08-27T14:25:10.238Z,100197.94
2022-08-27T14:30:15.156Z,100205.94
2022-08-27T14:35:24.964Z,100214.22
2022-08-27T14:40:29.417Z,100216.00
2022-08-27T14:45:33.249Z,100213.31
2022-08-27T14:50:36.105Z,100219.22
2022-08-27T14:55:40.266Z,100220.63
2022-08-27T15:00:43.195Z,100223.47
2022-08-27T15:05:45.707Z,100220.09
2022-08-27T15:10:51.314Z,100223.25
2022-08-27T15:15:53.883Z,100225.78
2022-08-27T15:20:56.486Z,100227.28
2022-08-27T15:26:04.170Z,100232.69
2022-08-27T15:31:06.883Z,100225.75
2022-08-27T15:36:09.598Z,100226.97
2022-08-27T15:41:14.520Z,100229.13
2022-08-27T15:46:17.239Z,100237.94
2022-08-27T15:51:27.908Z,100229.44
2022-08-27T15:56:34.555Z,100249.19
2022-08-27T16:01:39.785Z,100246.72
2022-08-27T16:06:42.450Z,100254.38
2022-08-27T16:11:46.386Z,100242.75
2022-08-27T16:16:50.278Z,100252.66
2022-08-27T16:21:53.257Z,100256.22
2022-08-27T16:26:57.174Z,100258.09
2022-08-27T16:32:01.481Z,100258.38
2022-08-27T16:37:04.134Z,100261.81
2022-08-27T16:42:10.738Z,100261.88
2022-08-27T16:47:13.406Z,100264.38
2022-08-27T16:52:15.989Z,100269.41
2022-08-27T16:57:19.942Z,100269.91
2022-08-27T17:02:30.443Z,100263.81
2022-08-27T17:07:33.311Z,100267.84
2022-08-27T17:12:37.501Z,100274.97
2022-08-27T17:17:40.665Z,100279.03
2022-08-27T17:22:43.426Z,100289.31
2022-08-27T17:27:47.259Z,100284.88
2022-08-27T17:32:50.976Z,100288.34
2022-08-27T17:37:53.635Z,100288.97
2022-08-27T17:42:59.934Z,100297.22
2022-08-27T17:48:06.119Z,100294.94
2022-08-27T17:53:16.570Z,100299.81
2022-08-27T17:58:21.056Z,100307.81
2022-08-27T18:03:24.096Z,100300.50
2022-08-27T18:08:27.422Z,100312.09
2022-08-27T18:13:37.135Z,100323.16
2022-08-27T18:18:41.353Z,100337.44
2022-08-27T18:23:44.594Z,100348.63
2022-08-27T18:28:49.402Z,100344.34
2022-08-27T18:33:51.886Z,100355.19
2022-08-27T18:38:55.319Z,100353.06
2022-08-27T18:44:00.000Z,100349.53
2022-08-27T18:49:02.558Z,100363.34
2022-08-27T18:54:05.655Z,100367.28
2022-08-27T18:59:10.777Z,100370.78
2022-08-27T19:04:13.858Z,100371.50
2022-08-27T19:09:16.550Z,100375.69
2022-08-27T19:14:20.340Z,100379.38
2022-08-27T19:19:25.792Z,100383.91
2022-08-27T19:24:28.966Z,100384.22
2022-08-27T19:29:32.870Z,100387.09
2022-08-27T19:34:35.242Z,100388.09
2022-08-27T19:39:38.886Z,100386.00
2022-08-27T19:44:42.945Z,100379.78
2022-08-27T19:49:48.003Z,100391.06
2022-08-27T19:55:12.756Z,100382.31
2022-08-27T20:00:17.581Z,100392.72
2022-08-27T20:05:21.306Z,100398.84
2022-08-27T20:10:31.860Z,100389.25
2022-08-27T20:15:41.774Z,100397.03
2022-08-27T20:20:44.918Z,100393.94
2022-08-27T20:25:47.495Z,100397.25
2022-08-27T20:30:51.433Z,100409.94
2022-08-27T20:35:54.290Z,100403.44
2022-08-27T20:40:56.789Z,100406.72
2022-08-27T20:46:02.067Z,100416.63
2022-08-27T20:51:04.724Z,100422.13
2022-08-27T20:56:07.763Z,100413.72
2022-08-27T21:01:12.576Z,100426.69
2022-08-27T21:06:15.220Z,100423.72
2022-08-27T21:11:18.326Z,100425.06
2022-08-27T21:16:22.113Z,100422.69
2022-08-27T21:21:24.814Z,100421.94
2022-08-27T21:26:27.336Z,100421.44
2022-08-27T21:31:31.550Z,100419.19
2022-08-27T21:36:34.604Z,100428.69
2022-08-27T21:41:37.751Z,100417.75
2022-08-27T21:46:41.931Z,100413.91
2022-08-27T21:51:44.537Z,100410.94
2022-08-27T21:56:47.046Z,100418.13
2022-08-27T22:02:00.146Z,100407.72
2022-08-27T22:07:03.599Z,100413.72
2022-08-27T22:12:06.871Z,100409.09
2022-08-27T22:17:11.044Z,100417.13
2022-08-27T22:22:13.531Z,100415.16
2022-08-27T22:27:16.201Z,100416.41
2022-08-27T22:32:20.072Z,100410.28
2022-08-27T22:37:22.467Z,100409.84
2022-08-27T22:42:25.001Z,100410.88
2022-08-27T22:47:30.628Z,100398.84
2022-08-27T22:52:38.911Z,100402.53
2022-08-27T22:57:41.900Z,100408.94
2022-08-27T23:02:46.216Z,100409.53
2022-08-27T23:07:50.202Z,100412.94
2022-08-27T23:12:54.105Z,100421.56
2022-08-27T23:17:59.751Z,100426.44
2022-08-27T23:23:02.702Z,100436.66
2022-08-27T23:28:06.599Z,100431.81
2022-08-27T23:33:13.160Z,100436.19
2022-08-27T23:38:16.915Z,100438.75
2022-08-27T23:43:20.062Z,100446.97
2022-08-27T23:48:25.990Z,100455.50
2022-08-27T23:53:28.646Z,100460.50
2022-08-27T23:58:31.170Z,100457.09
